sensor_id;sensor_type;location;lat;lon;timestamp;pressure;altitude;pressure_sealevel;temperature;humidity
83246;BME280;73140;46.754;17.714;2024-03-07T00:01:21;99577.63;;;6.66;75.09
83246;BME280;73140;46.754;17.714;2024-03-07T00:03:47;99556.16;;;6.47;74.03
83246;BME280;73140;46.754;17.714;2024-03-07T00:06:13;99558.06;;;6.54;73.95
83246;BME280;73140;46.754;17.714;2024-03-07T00:08:39;99578.69;;;6.73;75.66
83246;BME280;73140;46.754;17.714;2024-03-07T00:11:06;99578.38;;;6.61;76.06
83246;BME280;73140;46.754;17.714;2024-03-07T00:13:32;99497.34;;;6.07;75.77
83246;BME280;73140;46.754;17.714;2024-03-07T00:15:59;99477.13;;;6.05;76.36
83246;BME280;73140;46.754;17.714;2024-03-07T00:18:25;99578.47;;;6.64;75.75
83246;BME280;73140;46.754;17.714;2024-03-07T00:20:52;99565.38;;;6.67;74.66
83246;BME280;73140;46.754;17.714;2024-03-07T00:23:18;99578.44;;;6.62;76.10
83246;BME280;73140;46.754;17.714;2024-03-07T00:25:44;99583.00;;;6.71;75.39
83246;BME280;73140;46.754;17.714;2024-03-07T00:28:11;99583.72;;;6.64;77.07
83246;BME280;73140;46.754;17.714;2024-03-07T00:30:37;99578.50;;;6.65;77.45
83246;BME280;73140;46.754;17.714;2024-03-07T00:33:03;99574.16;;;6.66;75.44
83246;BME280;73140;46.754;17.714;2024-03-07T00:35:30;99556.34;;;6.54;78.31
83246;BME280;73140;46.754;17.714;2024-03-07T00:37:56;99576.06;;;6.73;76.96
83246;BME280;73140;46.754;17.714;2024-03-07T00:40:23;99568.00;;;6.65;76.92
83246;BME280;73140;46.754;17.714;2024-03-07T00:42:49;99583.25;;;6.80;77.19
83246;BME280;73140;46.754;17.714;2024-03-07T00:45:16;99579.78;;;6.81;75.51
83246;BME280;73140;46.754;17.714;2024-03-07T00:47:43;99551.22;;;6.60;75.88
83246;BME280;73140;46.754;17.714;2024-03-07T00:50:09;99469.44;;;6.12;75.72
83246;BME280;73140;46.754;17.714;2024-03-07T00:52:36;99579.47;;;6.69;76.96
83246;BME280;73140;46.754;17.714;2024-03-07T00:55:02;99576.97;;;6.74;77.22
83246;BME280;73140;46.754;17.714;2024-03-07T00:57:28;99598.88;;;6.74;77.08
83246;BME280;73140;46.754;17.714;2024-03-07T00:59:55;99567.56;;;6.49;76.75
83246;BME280;73140;46.754;17.714;2024-03-07T01:02:23;99587.41;;;6.72;76.51
83246;BME280;73140;46.754;17.714;2024-03-07T01:04:50;99587.22;;;6.64;76.41
83246;BME280;73140;46.754;17.714;2024-03-07T01:07:16;99584.41;;;6.57;78.07
83246;BME280;73140;46.754;17.714;2024-03-07T01:09:42;99479.41;;;5.91;78.51
83246;BME280;73140;46.754;17.714;2024-03-07T01:12:08;99514.47;;;6.26;78.18
83246;BME280;73140;46.754;17.714;2024-03-07T01:14:35;99479.50;;;5.94;77.37
83246;BME280;73140;46.754;17.714;2024-03-07T01:17:01;99523.94;;;6.21;77.64
83246;BME280;73140;46.754;17.714;2024-03-07T01:19:29;99480.09;;;5.86;77.94
83246;BME280;73140;46.754;17.714;2024-03-07T01:21:55;99578.50;;;6.65;77.70
83246;BME280;73140;46.754;17.714;2024-03-07T01:24:20;99564.47;;;6.65;77.55
83246;BME280;73140;46.754;17.714;2024-03-07T01:26:48;99559.16;;;6.63;76.50
83246;BME280;73140;46.754;17.714;2024-03-07T01:29:14;99571.59;;;6.69;76.96
83246;BME280;73140;46.754;17.714;2024-03-07T01:31:40;99516.31;;;6.30;78.37
83246;BME280;73140;46.754;17.714;2024-03-07T01:34:05;99565.38;;;6.67;79.06
83246;BME280;73140;46.754;17.714;2024-03-07T01:36:33;99568.78;;;6.63;79.33
83246;BME280;73140;46.754;17.714;2024-03-07T01:38:59;99571.22;;;6.54;79.26
83246;BME280;73140;46.754;17.714;2024-03-07T01:41:25;99538.44;;;6.40;78.54
83246;BME280;73140;46.754;17.714;2024-03-07T01:43:50;99569.88;;;6.37;78.53
83246;BME280;73140;46.754;17.714;2024-03-07T01:46:16;99563.53;;;6.29;78.33
83246;BME280;73140;46.754;17.714;2024-03-07T01:48:43;99491.22;;;5.77;78.74
83246;BME280;73140;46.754;17.714;2024-03-07T01:51:09;99553.13;;;6.00;79.43
83246;BME280;73140;46.754;17.714;2024-03-07T01:53:36;99568.63;;;6.23;79.60
83246;BME280;73140;46.754;17.714;2024-03-07T01:56:03;99477.00;;;5.69;80.48
83246;BME280;73140;46.754;17.714;2024-03-07T01:58:30;99560.75;;;6.23;79.63
83246;BME280;73140;46.754;17.714;2024-03-07T02:00:58;99562.38;;;6.17;81.16
83246;BME280;73140;46.754;17.714;2024-03-07T02:03:25;99556.03;;;6.09;80.82
83246;BME280;73140;46.754;17.714;2024-03-07T02:05:51;99502.63;;;5.78;81.57
83246;BME280;73140;46.754;17.714;2024-03-07T02:08:18;99540.00;;;6.00;81.02
83246;BME280;73140;46.754;17.714;2024-03-07T02:10:46;99555.97;;;6.08;82.48
83246;BME280;73140;46.754;17.714;2024-03-07T02:13:12;99555.09;;;6.07;81.07
83246;BME280;73140;46.754;17.714;2024-03-07T02:15:38;99448.69;;;5.56;80.82
83246;BME280;73140;46.754;17.714;2024-03-07T02:18:04;99469.69;;;5.57;81.36
83246;BME280;73140;46.754;17.714;2024-03-07T02:20:31;99555.09;;;6.07;82.17
83246;BME280;73140;46.754;17.714;2024-03-07T02:22:58;99501.94;;;5.53;81.36
83246;BME280;73140;46.754;17.714;2024-03-07T02:25:24;99571.91;;;6.14;81.23
83246;BME280;73140;46.754;17.714;2024-03-07T02:27:50;99550.81;;;6.11;81.56
83246;BME280;73140;46.754;17.714;2024-03-07T02:30:16;99486.59;;;5.67;81.33
83246;BME280;73140;46.754;17.714;2024-03-07T02:32:46;99497.44;;;5.81;82.04
83246;BME280;73140;46.754;17.714;2024-03-07T02:35:17;99478.56;;;5.92;80.05
83246;BME280;73140;46.754;17.714;2024-03-07T02:37:44;99547.66;;;6.24;80.48
83246;BME280;73140;46.754;17.714;2024-03-07T02:40:13;99514.63;;;5.99;82.09
83246;BME280;73140;46.754;17.714;2024-03-07T02:42:39;99525.03;;;5.96;81.90
83246;BME280;73140;46.754;17.714;2024-03-07T02:45:06;99552.13;;;6.27;82.67
83246;BME280;73140;46.754;17.714;2024-03-07T02:47:32;99562.50;;;6.24;81.39
83246;BME280;73140;46.754;17.714;2024-03-07T02:49:58;99555.84;;;6.35;80.33
83246;BME280;73140;46.754;17.714;2024-03-07T02:52:23;99503.81;;;5.87;82.30
83246;BME280;73140;46.754;17.714;2024-03-07T02:54:49;99553.03;;;6.29;80.69
83246;BME280;73140;46.754;17.714;2024-03-07T02:57:17;99551.88;;;6.17;82.65
83246;BME280;73140;46.754;17.714;2024-03-07T02:59:43;99498.22;;;5.77;82.75
83246;BME280;73140;46.754;17.714;2024-03-07T03:02:08;99542.53;;;5.96;82.75
83246;BME280;73140;46.754;17.714;2024-03-07T03:04:34;99557.03;;;6.14;82.50
83246;BME280;73140;46.754;17.714;2024-03-07T03:07:00;99449.47;;;5.53;81.23
83246;BME280;73140;46.754;17.714;2024-03-07T03:09:26;99514.44;;;5.93;81.83
83246;BME280;73140;46.754;17.714;2024-03-07T03:11:53;99500.94;;;5.80;82.65
83246;BME280;73140;46.754;17.714;2024-03-07T03:14:21;99543.78;;;6.10;83.67
83246;BME280;73140;46.754;17.714;2024-03-07T03:16:46;99554.63;;;6.22;83.57
83246;BME280;73140;46.754;17.714;2024-03-07T03:19:12;99512.59;;;5.89;82.42
83246;BME280;73140;46.754;17.714;2024-03-07T03:21:38;99552.34;;;6.36;80.76
83246;BME280;73140;46.754;17.714;2024-03-07T03:24:04;99550.41;;;6.29;83.23
83246;BME280;73140;46.754;17.714;2024-03-07T03:26:32;99551.44;;;6.35;82.43
83246;BME280;73140;46.754;17.714;2024-03-07T03:28:58;99551.63;;;6.41;82.70
83246;BME280;73140;46.754;17.714;2024-03-07T03:31:26;99555.06;;;6.39;82.12
83246;BME280;73140;46.754;17.714;2024-03-07T03:33:52;99553.97;;;6.31;82.88
83246;BME280;73140;46.754;17.714;2024-03-07T03:36:18;99546.69;;;6.21;82.64
83246;BME280;73140;46.754;17.714;2024-03-07T03:38:44;99536.94;;;6.15;84.04
83246;BME280;73140;46.754;17.714;2024-03-07T03:41:15;99532.41;;;6.09;82.47
83246;BME280;73140;46.754;17.714;2024-03-07T03:43:40;99507.19;;;5.85;84.25
83246;BME280;73140;46.754;17.714;2024-03-07T03:46:09;99559.81;;;6.21;83.02
83246;BME280;73140;46.754;17.714;2024-03-07T03:48:38;99558.13;;;6.23;84.62
83246;BME280;73140;46.754;17.714;2024-03-07T03:51:04;99557.50;;;6.33;83.41
83246;BME280;73140;46.754;17.714;2024-03-07T03:53:29;99554.81;;;6.30;84.25
83246;BME280;73140;46.754;17.714;2024-03-07T03:55:55;99515.81;;;6.10;82.98
83246;BME280;73140;46.754;17.714;2024-03-07T03:58:22;99564.88;;;6.46;82.33
83246;BME280;73140;46.754;17.714;2024-03-07T04:00:48;99566.72;;;6.50;83.79
83246;BME280;73140;46.754;17.714;2024-03-07T04:03:14;99491.16;;;6.05;82.95
83246;BME280;73140;46.754;17.714;2024-03-07T04:05:41;99561.59;;;6.54;81.84
83246;BME280;73140;46.754;17.714;2024-03-07T04:08:07;99547.94;;;6.35;83.26
83246;BME280;73140;46.754;17.714;2024-03-07T04:10:35;99539.97;;;6.32;82.81
83246;BME280;73140;46.754;17.714;2024-03-07T04:13:01;99551.88;;;6.52;81.65
83246;BME280;73140;46.754;17.714;2024-03-07T04:15:27;99523.88;;;6.19;83.13
83246;BME280;73140;46.754;17.714;2024-03-07T04:17:56;99556.41;;;6.59;81.86
83246;BME280;73140;46.754;17.714;2024-03-07T04:20:22;99558.63;;;6.77;82.61
83246;BME280;73140;46.754;17.714;2024-03-07T04:22:52;99539.56;;;6.51;81.69
83246;BME280;73140;46.754;17.714;2024-03-07T04:25:18;99540.59;;;6.56;83.00
83246;BME280;73140;46.754;17.714;2024-03-07T04:27:44;99552.22;;;6.65;83.44
83246;BME280;73140;46.754;17.714;2024-03-07T04:30:10;99488.84;;;6.17;82.67
83246;BME280;73140;46.754;17.714;2024-03-07T04:32:36;99549.69;;;6.36;83.83
83246;BME280;73140;46.754;17.714;2024-03-07T04:35:03;99568.19;;;6.39;85.04
83246;BME280;73140;46.754;17.714;2024-03-07T04:37:33;99556.34;;;6.22;84.33
83246;BME280;73140;46.754;17.714;2024-03-07T04:40:05;99481.94;;;5.88;84.00
83246;BME280;73140;46.754;17.714;2024-03-07T04:42:41;99528.16;;;6.14;84.72
83246;BME280;73140;46.754;17.714;2024-03-07T04:45:08;99466.97;;;5.86;85.56
83246;BME280;73140;46.754;17.714;2024-03-07T04:47:36;99575.59;;;6.55;83.56
83246;BME280;73140;46.754;17.714;2024-03-07T04:50:03;99570.34;;;6.55;85.44
83246;BME280;73140;46.754;17.714;2024-03-07T04:52:30;99572.94;;;6.53;85.55
83246;BME280;73140;46.754;17.714;2024-03-07T04:54:56;99579.09;;;6.54;84.76
83246;BME280;73140;46.754;17.714;2024-03-07T04:57:23;99573.19;;;6.64;84.39
83246;BME280;73140;46.754;17.714;2024-03-07T04:59:49;99565.31;;;6.64;83.46
83246;BME280;73140;46.754;17.714;2024-03-07T05:02:15;99567.94;;;6.62;83.53
83246;BME280;73140;46.754;17.714;2024-03-07T05:04:41;99570.81;;;6.73;83.34
83246;BME280;73140;46.754;17.714;2024-03-07T05:07:07;99511.47;;;6.12;84.10
83246;BME280;73140;46.754;17.714;2024-03-07T05:09:33;99563.09;;;6.45;85.39
83246;BME280;73140;46.754;17.714;2024-03-07T05:11:59;99578.22;;;6.55;85.06
83246;BME280;73140;46.754;17.714;2024-03-07T05:14:26;99570.13;;;6.46;85.32
83246;BME280;73140;46.754;17.714;2024-03-07T05:16:52;99577.94;;;6.44;85.41
83246;BME280;73140;46.754;17.714;2024-03-07T05:19:38;99582.25;;;6.41;84.77
83246;BME280;73140;46.754;17.714;2024-03-07T05:22:04;99538.63;;;6.13;86.98
83246;BME280;73140;46.754;17.714;2024-03-07T05:24:31;99574.72;;;6.22;86.45
83246;BME280;73140;46.754;17.714;2024-03-07T05:26:58;99568.63;;;6.23;87.01
83246;BME280;73140;46.754;17.714;2024-03-07T05:29:26;99586.53;;;6.37;88.15
83246;BME280;73140;46.754;17.714;2024-03-07T05:31:52;99590.97;;;6.40;87.98
83246;BME280;73140;46.754;17.714;2024-03-07T05:34:18;99596.13;;;6.37;89.38
83246;BME280;73140;46.754;17.714;2024-03-07T05:36:45;99530.38;;;5.99;88.63
83246;BME280;73140;46.754;17.714;2024-03-07T05:39:12;99596.06;;;6.34;88.76
83246;BME280;73140;46.754;17.714;2024-03-07T05:41:38;99525.09;;;5.98;87.57
83246;BME280;73140;46.754;17.714;2024-03-07T05:44:05;99596.78;;;6.61;86.85
83246;BME280;73140;46.754;17.714;2024-03-07T05:46:36;99603.06;;;6.66;85.47
83246;BME280;73140;46.754;17.714;2024-03-07T05:49:07;99554.84;;;6.31;86.67
83246;BME280;73140;46.754;17.714;2024-03-07T05:51:32;99500.81;;;6.06;86.09
83246;BME280;73140;46.754;17.714;2024-03-07T05:53:58;99560.91;;;6.29;85.86
83246;BME280;73140;46.754;17.714;2024-03-07T05:56:24;99527.59;;;6.28;85.18
83246;BME280;73140;46.754;17.714;2024-03-07T05:58:50;99607.22;;;6.58;84.95
83246;BME280;73140;46.754;17.714;2024-03-07T06:01:17;99609.28;;;6.71;85.51
83246;BME280;73140;46.754;17.714;2024-03-07T06:03:45;99623.94;;;6.61;85.11
83246;BME280;73140;46.754;17.714;2024-03-07T06:06:11;99565.75;;;6.46;86.23
83246;BME280;73140;46.754;17.714;2024-03-07T06:08:38;99572.00;;;6.51;85.20
83246;BME280;73140;46.754;17.714;2024-03-07T06:11:08;99559.81;;;6.53;83.90
83246;BME280;73140;46.754;17.714;2024-03-07T06:13:34;99616.56;;;6.81;84.10
83246;BME280;73140;46.754;17.714;2024-03-07T06:16:00;99538.03;;;6.25;85.22
83246;BME280;73140;46.754;17.714;2024-03-07T06:18:29;99547.47;;;6.51;84.95
83246;BME280;73140;46.754;17.714;2024-03-07T06:20:58;99608.03;;;6.91;85.38
83246;BME280;73140;46.754;17.714;2024-03-07T06:23:25;99599.09;;;6.83;83.94
83246;BME280;73140;46.754;17.714;2024-03-07T06:25:54;99614.00;;;6.84;85.70
83246;BME280;73140;46.754;17.714;2024-03-07T06:28:21;99621.91;;;6.84;84.29
83246;BME280;73140;46.754;17.714;2024-03-07T06:30:47;99574.44;;;6.44;85.48
83246;BME280;73140;46.754;17.714;2024-03-07T06:33:14;99579.03;;;6.52;84.68
83246;BME280;73140;46.754;17.714;2024-03-07T06:35:40;99632.38;;;6.83;84.81
83246;BME280;73140;46.754;17.714;2024-03-07T06:38:09;99643.84;;;6.86;83.68
83246;BME280;73140;46.754;17.714;2024-03-07T06:40:35;99638.44;;;6.80;84.70
83246;BME280;73140;46.754;17.714;2024-03-07T06:43:02;99634.72;;;6.72;83.69
83246;BME280;73140;46.754;17.714;2024-03-07T06:45:32;99644.72;;;6.85;85.54
83246;BME280;73140;46.754;17.714;2024-03-07T06:47:58;99586.78;;;6.48;84.51
83246;BME280;73140;46.754;17.714;2024-03-07T06:50:24;99635.81;;;6.80;83.66
83246;BME280;73140;46.754;17.714;2024-03-07T06:52:50;99621.28;;;6.60;85.88
83246;BME280;73140;46.754;17.714;2024-03-07T06:55:18;99596.41;;;6.46;85.01
83246;BME280;73140;46.754;17.714;2024-03-07T06:57:45;99649.88;;;6.82;85.21
83246;BME280;73140;46.754;17.714;2024-03-07T07:00:11;99647.47;;;6.91;85.77
83246;BME280;73140;46.754;17.714;2024-03-07T07:02:38;99573.53;;;6.42;84.45
83246;BME280;73140;46.754;17.714;2024-03-07T07:05:05;99645.56;;;6.84;85.47
83246;BME280;73140;46.754;17.714;2024-03-07T07:07:36;99648.19;;;6.84;85.75
83246;BME280;73140;46.754;17.714;2024-03-07T07:10:03;99563.72;;;6.35;85.41
83246;BME280;73140;46.754;17.714;2024-03-07T07:12:31;99644.72;;;6.85;86.40
83246;BME280;73140;46.754;17.714;2024-03-07T07:14:57;99649.84;;;6.81;83.73
83246;BME280;73140;46.754;17.714;2024-03-07T07:17:22;99652.72;;;6.90;83.62
83246;BME280;73140;46.754;17.714;2024-03-07T07:19:50;99648.25;;;6.87;86.06
83246;BME280;73140;46.754;17.714;2024-03-07T07:22:18;99649.00;;;6.82;86.11
83246;BME280;73140;46.754;17.714;2024-03-07T07:24:44;99646.41;;;6.83;84.94
83246;BME280;73140;46.754;17.714;2024-03-07T07:27:10;99648.31;;;6.90;83.98
83246;BME280;73140;46.754;17.714;2024-03-07T07:29:37;99621.91;;;6.84;84.39
83246;BME280;73140;46.754;17.714;2024-03-07T07:32:04;99606.84;;;6.77;85.06
83246;BME280;73140;46.754;17.714;2024-03-07T07:34:30;99590.91;;;6.71;85.15
83246;BME280;73140;46.754;17.714;2024-03-07T07:36:56;99650.78;;;7.17;84.38
83246;BME280;73140;46.754;17.714;2024-03-07T07:39:22;99649.00;;;7.18;83.58
83246;BME280;73140;46.754;17.714;2024-03-07T07:41:49;99625.84;;;7.01;83.94
83246;BME280;73140;46.754;17.714;2024-03-07T07:44:15;99574.91;;;6.62;84.39
83246;BME280;73140;46.754;17.714;2024-03-07T07:46:43;99646.53;;;7.24;85.32
83246;BME280;73140;46.754;17.714;2024-03-07T07:49:09;99654.44;;;7.24;84.75
83246;BME280;73140;46.754;17.714;2024-03-07T07:51:35;99617.38;;;7.14;84.15
83246;BME280;73140;46.754;17.714;2024-03-07T07:54:01;99659.03;;;7.34;82.60
83246;BME280;73140;46.754;17.714;2024-03-07T07:56:28;99645.75;;;7.28;81.42
83246;BME280;73140;46.754;17.714;2024-03-07T07:58:54;99555.00;;;6.72;83.63
83246;BME280;73140;46.754;17.714;2024-03-07T08:01:20;99577.22;;;6.84;82.69
83246;BME280;73140;46.754;17.714;2024-03-07T08:03:47;99645.22;;;7.42;82.38
83246;BME280;73140;46.754;17.714;2024-03-07T08:06:13;99655.97;;;7.51;82.34
83246;BME280;73140;46.754;17.714;2024-03-07T08:08:39;99666.50;;;7.51;82.07
83246;BME280;73140;46.754;17.714;2024-03-07T08:11:05;99653.09;;;7.41;81.19
83246;BME280;73140;46.754;17.714;2024-03-07T08:13:31;99663.69;;;7.45;82.27
83246;BME280;73140;46.754;17.714;2024-03-07T08:15:57;99667.03;;;7.37;81.14
83246;BME280;73140;46.754;17.714;2024-03-07T08:18:23;99547.75;;;6.63;80.71
83246;BME280;73140;46.754;17.714;2024-03-07T08:20:51;99668.50;;;7.26;81.29
83246;BME280;73140;46.754;17.714;2024-03-07T08:23:17;99672.91;;;7.27;80.63
83246;BME280;73140;46.754;17.714;2024-03-07T08:25:43;99644.72;;;7.21;81.24
83246;BME280;73140;46.754;17.714;2024-03-07T08:28:09;99680.72;;;7.24;81.95
83246;BME280;73140;46.754;17.714;2024-03-07T08:30:35;99670.03;;;7.18;82.00
83246;BME280;73140;46.754;17.714;2024-03-07T08:33:01;99616.34;;;7.08;82.56
83246;BME280;73140;46.754;17.714;2024-03-07T08:35:31;99625.44;;;7.22;82.81
83246;BME280;73140;46.754;17.714;2024-03-07T08:37:58;99660.50;;;7.21;83.54
83246;BME280;73140;46.754;17.714;2024-03-07T08:40:25;99686.84;;;7.23;83.83
83246;BME280;73140;46.754;17.714;2024-03-07T08:42:52;99685.03;;;7.20;86.42
83246;BME280;73140;46.754;17.714;2024-03-07T08:45:20;99685.63;;;7.10;85.44
83246;BME280;73140;46.754;17.714;2024-03-07T08:47:47;99689.34;;;7.18;87.15
83246;BME280;73140;46.754;17.714;2024-03-07T08:50:13;99643.63;;;6.77;86.35
83246;BME280;73140;46.754;17.714;2024-03-07T08:52:40;99675.28;;;7.16;86.89
83246;BME280;73140;46.754;17.714;2024-03-07T08:55:09;99691.84;;;7.12;86.93
83246;BME280;73140;46.754;17.714;2024-03-07T08:57:40;99603.97;;;6.68;86.86
83246;BME280;73140;46.754;17.714;2024-03-07T09:00:08;99693.38;;;7.04;87.74
83246;BME280;73140;46.754;17.714;2024-03-07T09:02:35;99688.13;;;7.04;87.06
83246;BME280;73140;46.754;17.714;2024-03-07T09:05:01;99696.22;;;7.11;86.04
83246;BME280;73140;46.754;17.714;2024-03-07T09:07:27;99659.78;;;6.92;87.12
83246;BME280;73140;46.754;17.714;2024-03-07T09:09:55;99699.25;;;7.28;87.38
83246;BME280;73140;46.754;17.714;2024-03-07T09:12:22;99636.47;;;6.72;87.58
83246;BME280;73140;46.754;17.714;2024-03-07T09:14:51;99623.38;;;6.73;87.53
83246;BME280;73140;46.754;17.714;2024-03-07T09:17:18;99628.91;;;6.51;88.03
83246;BME280;73140;46.754;17.714;2024-03-07T09:19:44;99711.75;;;7.02;88.48
83246;BME280;73140;46.754;17.714;2024-03-07T09:22:10;99644.09;;;6.61;89.19
83246;BME280;73140;46.754;17.714;2024-03-07T09:24:36;99717.91;;;7.03;89.09
83246;BME280;73140;46.754;17.714;2024-03-07T09:27:03;99693.00;;;6.89;88.27
83246;BME280;73140;46.754;17.714;2024-03-07T09:29:31;99711.91;;;7.08;90.03
83246;BME280;73140;46.754;17.714;2024-03-07T09:31:57;99720.56;;;7.04;89.49
83246;BME280;73140;46.754;17.714;2024-03-07T09:34:24;99691.47;;;6.98;88.75
83246;BME280;73140;46.754;17.714;2024-03-07T09:36:51;99733.03;;;7.11;88.90
83246;BME280;73140;46.754;17.714;2024-03-07T09:39:17;99712.22;;;7.21;88.68
83246;BME280;73140;46.754;17.714;2024-03-07T09:41:44;99692.81;;;7.16;88.56
83246;BME280;73140;46.754;17.714;2024-03-07T09:44:14;99730.38;;;7.46;85.96
83246;BME280;73140;46.754;17.714;2024-03-07T09:46:45;99713.78;;;7.48;87.96
83246;BME280;73140;46.754;17.714;2024-03-07T09:49:13;99713.19;;;7.60;85.91
83246;BME280;73140;46.754;17.714;2024-03-07T09:51:39;99716.50;;;7.53;86.03
83246;BME280;73140;46.754;17.714;2024-03-07T09:54:05;99648.03;;;7.14;86.13
83246;BME280;73140;46.754;17.714;2024-03-07T09:56:31;99681.44;;;7.54;86.42
83246;BME280;73140;46.754;17.714;2024-03-07T09:58:58;99716.41;;;7.86;86.60
83246;BME280;73140;46.754;17.714;2024-03-07T10:01:26;99721.91;;;7.96;86.90
83246;BME280;73140;46.754;17.714;2024-03-07T10:03:58;99706.88;;;7.92;83.84
83246;BME280;73140;46.754;17.714;2024-03-07T10:06:35;99727.28;;;8.01;85.27
83246;BME280;73140;46.754;17.714;2024-03-07T10:09:01;99725.41;;;7.95;83.64
83246;BME280;73140;46.754;17.714;2024-03-07T10:11:29;99722.97;;;8.04;84.31
83246;BME280;73140;46.754;17.714;2024-03-07T10:13:55;99724.53;;;7.96;82.72
83246;BME280;73140;46.754;17.714;2024-03-07T10:16:21;99647.22;;;7.52;82.15
83246;BME280;73140;46.754;17.714;2024-03-07T10:18:48;99749.41;;;8.07;83.15
83246;BME280;73140;46.754;17.714;2024-03-07T10:21:20;99652.53;;;7.55;84.01
83246;BME280;73140;46.754;17.714;2024-03-07T10:23:46;99740.44;;;7.99;80.56
83246;BME280;73140;46.754;17.714;2024-03-07T10:26:13;99694.38;;;7.82;80.97
83246;BME280;73140;46.754;17.714;2024-03-07T10:28:39;99741.38;;;8.03;81.41
83246;BME280;73140;46.754;17.714;2024-03-07T10:31:05;99691.81;;;7.85;82.34
83246;BME280;73140;46.754;17.714;2024-03-07T10:33:37;99734.31;;;8.41;81.58
83246;BME280;73140;46.754;17.714;2024-03-07T10:36:07;99734.88;;;8.68;81.55
83246;BME280;73140;46.754;17.714;2024-03-07T10:38:37;99741.41;;;8.88;82.73
83246;BME280;73140;46.754;17.714;2024-03-07T10:41:06;99748.50;;;8.91;79.33
83246;BME280;73140;46.754;17.714;2024-03-07T10:43:36;99740.47;;;8.86;79.81
83246;BME280;73140;46.754;17.714;2024-03-07T10:46:05;99735.44;;;8.98;78.40
83246;BME280;73140;46.754;17.714;2024-03-07T10:48:37;99628.22;;;8.07;77.81
83246;BME280;73140;46.754;17.714;2024-03-07T10:51:14;99740.56;;;8.89;80.97
83246;BME280;73140;46.754;17.714;2024-03-07T10:53:53;99703.88;;;9.01;79.99
83246;BME280;73140;46.754;17.714;2024-03-07T10:56:36;99729.88;;;9.31;77.07
83246;BME280;73140;46.754;17.714;2024-03-07T10:59:13;99728.69;;;9.14;77.11
83246;BME280;73140;46.754;17.714;2024-03-07T11:01:47;99657.19;;;8.51;75.80
83246;BME280;73140;46.754;17.714;2024-03-07T11:04:16;99720.00;;;9.20;78.43
83246;BME280;73140;46.754;17.714;2024-03-07T11:06:43;99733.88;;;9.10;77.49
83246;BME280;73140;46.754;17.714;2024-03-07T11:09:13;99681.25;;;8.68;79.53
83246;BME280;73140;46.754;17.714;2024-03-07T11:11:39;99671.63;;;8.71;77.27
83246;BME280;73140;46.754;17.714;2024-03-07T11:14:11;99692.25;;;8.92;76.77
83246;BME280;73140;46.754;17.714;2024-03-07T11:16:39;99680.25;;;8.63;75.69
83246;BME280;73140;46.754;17.714;2024-03-07T11:19:25;99723.69;;;9.31;77.36
83246;BME280;73140;46.754;17.714;2024-03-07T11:21:56;99729.53;;;9.12;76.24
83246;BME280;73140;46.754;17.714;2024-03-07T11:24:27;99718.28;;;9.23;73.79
83246;BME280;73140;46.754;17.714;2024-03-07T11:26:55;99675.97;;;8.66;75.96
83246;BME280;73140;46.754;17.714;2024-03-07T11:29:43;99728.56;;;9.07;76.29
83246;BME280;73140;46.754;17.714;2024-03-07T11:32:10;99660.00;;;8.60;76.08
83246;BME280;73140;46.754;17.714;2024-03-07T11:34:38;99646.78;;;8.59;75.97
83246;BME280;73140;46.754;17.714;2024-03-07T11:37:07;99746.66;;;8.87;76.34
83246;BME280;73140;46.754;17.714;2024-03-07T11:39:45;99614.88;;;8.00;76.34
83246;BME280;73140;46.754;17.714;2024-03-07T11:42:19;99733.88;;;8.63;77.94
83246;BME280;73140;46.754;17.714;2024-03-07T11:44:48;99685.97;;;8.40;78.04
83246;BME280;73140;46.754;17.714;2024-03-07T11:47:14;99733.47;;;8.87;76.30
83246;BME280;73140;46.754;17.714;2024-03-07T11:49:40;99727.28;;;8.86;76.14
83246;BME280;73140;46.754;17.714;2024-03-07T11:52:06;99622.31;;;8.21;75.49
83246;BME280;73140;46.754;17.714;2024-03-07T11:54:38;99683.44;;;8.45;77.22
83246;BME280;73140;46.754;17.714;2024-03-07T11:57:14;99642.91;;;8.38;77.59
83246;BME280;73140;46.754;17.714;2024-03-07T11:59:40;99743.53;;;8.61;77.88
83246;BME280;73140;46.754;17.714;2024-03-07T12:02:12;99623.44;;;7.48;77.58
83246;BME280;73140;46.754;17.714;2024-03-07T12:04:39;99713.66;;;7.81;78.82
83246;BME280;73140;46.754;17.714;2024-03-07T12:07:06;99727.72;;;7.82;79.45
83246;BME280;73140;46.754;17.714;2024-03-07T12:09:32;99734.44;;;7.68;78.91
83246;BME280;73140;46.754;17.714;2024-03-07T12:12:01;99737.13;;;7.71;81.80
83246;BME280;73140;46.754;17.714;2024-03-07T12:14:29;99736.63;;;7.87;81.04
83246;BME280;73140;46.754;17.714;2024-03-07T12:16:56;99695.63;;;7.59;79.20
83246;BME280;73140;46.754;17.714;2024-03-07T12:19:22;99650.25;;;7.33;82.05
83246;BME280;73140;46.754;17.714;2024-03-07T12:21:48;99730.22;;;7.76;80.22
83246;BME280;73140;46.754;17.714;2024-03-07T12:24:15;99727.03;;;7.53;80.47
83246;BME280;73140;46.754;17.714;2024-03-07T12:26:41;99729.78;;;7.57;81.57
83246;BME280;73140;46.754;17.714;2024-03-07T12:29:12;99740.97;;;7.49;82.02
83246;BME280;73140;46.754;17.714;2024-03-07T12:31:42;99701.00;;;7.29;80.65
83246;BME280;73140;46.754;17.714;2024-03-07T12:34:08;99738.25;;;7.44;81.43
83246;BME280;73140;46.754;17.714;2024-03-07T12:36:38;99740.59;;;7.34;82.70
83246;BME280;73140;46.754;17.714;2024-03-07T12:39:22;99703.22;;;7.47;80.98
83246;BME280;73140;46.754;17.714;2024-03-07T12:41:51;99737.56;;;7.53;80.81
83246;BME280;73140;46.754;17.714;2024-03-07T12:44:18;99732.75;;;7.35;81.87
83246;BME280;73140;46.754;17.714;2024-03-07T12:46:47;99741.31;;;7.27;81.71
83246;BME280;73140;46.754;17.714;2024-03-07T12:49:13;99740.59;;;7.34;80.34
83246;BME280;73140;46.754;17.714;2024-03-07T12:51:41;99733.72;;;7.39;81.70
83246;BME280;73140;46.754;17.714;2024-03-07T12:54:07;99745.06;;;7.36;81.60
83246;BME280;73140;46.754;17.714;2024-03-07T12:56:35;99738.66;;;7.27;82.29
83246;BME280;73140;46.754;17.714;2024-03-07T12:59:03;99658.31;;;6.69;81.53
83246;BME280;73140;46.754;17.714;2024-03-07T13:01:29;99742.16;;;7.26;81.29